sensor_id;sensor_type;location;lat;lon;timestamp;P1;durP1;ratioP1;P2;durP2;ratioP2
38023;SDS011;23834;48.080;11.682;2023-04-24T00:01:25;1.40;;;1.30;;
38023;SDS011;23834;48.080;11.682;2023-04-24T00:03:50;1.67;;;1.57;;
38023;SDS011;23834;48.080;11.682;2023-04-24T00:06:15;1.20;;;1.20;;
38023;SDS011;23834;48.080;11.682;2023-04-24T00:08:41;1.10;;;1.10;;
38023;SDS011;23834;48.080;11.682;2023-04-24T00:11:07;1.63;;;1.47;;
38023;SDS011;23834;48.080;11.682;2023-04-24T00:13:34;1.73;;;1.00;;
38023;SDS011;23834;48.080;11.682;2023-04-24T00:15:59;1.17;;;1.13;;
38023;SDS011;23834;48.080;11.682;2023-04-24T00:18:24;1.27;;;1.00;;
38023;SDS011;23834;48.080;11.682;2023-04-24T00:20:50;1.00;;;1.00;;
38023;SDS011;23834;48.080;11.682;2023-04-24T00:23:15;1.20;;;1.10;;
38023;SDS011;23834;48.080;11.682;2023-04-24T00:25:40;1.20;;;1.10;;
38023;SDS011;23834;48.080;11.682;2023-04-24T00:28:05;1.40;;;1.30;;
38023;SDS011;23834;48.080;11.682;2023-04-24T00:30:30;1.37;;;1.20;;
38023;SDS011;23834;48.080;11.682;2023-04-24T00:32:56;1.30;;;1.00;;
38023;SDS011;23834;48.080;11.682;2023-04-24T00:35:21;1.37;;;1.17;;
38023;SDS011;23834;48.080;11.682;2023-04-24T00:37:47;0.80;;;0.80;;
38023;SDS011;23834;48.080;11.682;2023-04-24T00:40:12;1.20;;;1.10;;
38023;SDS011;23834;48.080;11.682;2023-04-24T00:42:37;1.40;;;1.30;;
38023;SDS011;23834;48.080;11.682;2023-04-24T00:45:03;1.77;;;0.90;;
38023;SDS011;23834;48.080;11.682;2023-04-24T00:47:29;1.10;;;1.07;;
38023;SDS011;23834;48.080;11.682;2023-04-24T00:49:55;1.30;;;1.20;;
38023;SDS011;23834;48.080;11.682;2023-04-24T00:52:20;1.10;;;1.00;;
38023;SDS011;23834;48.080;11.682;2023-04-24T00:54:45;0.90;;;0.80;;
38023;SDS011;23834;48.080;11.682;2023-04-24T00:57:10;1.03;;;1.00;;
38023;SDS011;23834;48.080;11.682;2023-04-24T00:59:35;1.00;;;0.87;;
38023;SDS011;23834;48.080;11.682;2023-04-24T01:02:01;0.80;;;0.80;;
38023;SDS011;23834;48.080;11.682;2023-04-24T01:04:26;0.93;;;0.90;;
38023;SDS011;23834;48.080;11.682;2023-04-24T01:06:52;1.00;;;0.90;;
38023;SDS011;23834;48.080;11.682;2023-04-24T01:09:17;1.20;;;1.10;;
38023;SDS011;23834;48.080;11.682;2023-04-24T01:11:43;0.80;;;0.80;;
38023;SDS011;23834;48.080;11.682;2023-04-24T01:14:08;1.10;;;1.00;;
38023;SDS011;23834;48.080;11.682;2023-04-24T01:16:34;0.83;;;0.83;;
38023;SDS011;23834;48.080;11.682;2023-04-24T01:19:00;0.83;;;0.83;;
38023;SDS011;23834;48.080;11.682;2023-04-24T01:21:26;1.47;;;0.90;;
38023;SDS011;23834;48.080;11.682;2023-04-24T01:23:55;0.83;;;0.83;;
38023;SDS011;23834;48.080;11.682;2023-04-24T01:26:20;1.10;;;1.00;;
38023;SDS011;23834;48.080;11.682;2023-04-24T01:28:46;0.97;;;0.87;;
38023;SDS011;23834;48.080;11.682;2023-04-24T01:31:11;1.33;;;1.00;;
38023;SDS011;23834;48.080;11.682;2023-04-24T01:33:36;0.70;;;0.70;;
38023;SDS011;23834;48.080;11.682;2023-04-24T01:36:02;0.80;;;0.80;;
38023;SDS011;23834;48.080;11.682;2023-04-24T01:38:27;0.83;;;0.83;;
38023;SDS011;23834;48.080;11.682;2023-04-24T01:40:52;1.37;;;0.80;;
38023;SDS011;23834;48.080;11.682;2023-04-24T01:43:18;0.70;;;0.70;;
38023;SDS011;23834;48.080;11.682;2023-04-24T01:45:43;1.10;;;1.00;;
38023;SDS011;23834;48.080;11.682;2023-04-24T01:48:08;0.80;;;0.80;;
38023;SDS011;23834;48.080;11.682;2023-04-24T01:50:33;1.57;;;0.80;;
38023;SDS011;23834;48.080;11.682;2023-04-24T01:52:59;0.80;;;0.80;;
38023;SDS011;23834;48.080;11.682;2023-04-24T01:55:24;0.80;;;0.80;;
38023;SDS011;23834;48.080;11.682;2023-04-24T01:57:49;0.80;;;0.80;;
38023;SDS011;23834;48.080;11.682;2023-04-24T02:00:15;0.80;;;0.80;;
38023;SDS011;23834;48.080;11.682;2023-04-24T02:02:40;0.70;;;0.70;;
38023;SDS011;23834;48.080;11.682;2023-04-24T02:05:06;0.90;;;0.90;;
38023;SDS011;23834;48.080;11.682;2023-04-24T02:07:31;1.27;;;0.80;;
38023;SDS011;23834;48.080;11.682;2023-04-24T02:09:57;0.93;;;0.93;;
38023;SDS011;23834;48.080;11.682;2023-04-24T02:12:22;0.80;;;0.80;;
38023;SDS011;23834;48.080;11.682;2023-04-24T02:14:48;1.10;;;0.80;;
38023;SDS011;23834;48.080;11.682;2023-04-24T02:17:13;0.70;;;0.53;;
38023;SDS011;23834;48.080;11.682;2023-04-24T02:19:40;1.00;;;0.80;;
38023;SDS011;23834;48.080;11.682;2023-04-24T02:22:05;0.80;;;0.80;;
38023;SDS011;23834;48.080;11.682;2023-04-24T02:24:30;0.80;;;0.60;;
38023;SDS011;23834;48.080;11.682;2023-04-24T02:26:55;0.70;;;0.70;;
38023;SDS011;23834;48.080;11.682;2023-04-24T02:29:21;0.70;;;0.70;;
38023;SDS011;23834;48.080;11.682;2023-04-24T02:31:46;0.77;;;0.77;;
38023;SDS011;23834;48.080;11.682;2023-04-24T02:34:11;0.70;;;0.70;;
38023;SDS011;23834;48.080;11.682;2023-04-24T02:36:36;1.00;;;0.70;;
38023;SDS011;23834;48.080;11.682;2023-04-24T02:39:01;0.63;;;0.63;;
38023;SDS011;23834;48.080;11.682;2023-04-24T02:41:28;1.23;;;0.70;;
38023;SDS011;23834;48.080;11.682;2023-04-24T02:43:57;0.53;;;0.53;;
38023;SDS011;23834;48.080;11.682;2023-04-24T02:46:22;0.80;;;0.70;;
38023;SDS011;23834;48.080;11.682;2023-04-24T02:48:47;1.13;;;0.63;;
38023;SDS011;23834;48.080;11.682;2023-04-24T02:51:12;1.27;;;0.80;;
38023;SDS011;23834;48.080;11.682;2023-04-24T02:53:37;0.60;;;0.60;;
38023;SDS011;23834;48.080;11.682;2023-04-24T02:56:02;0.80;;;0.80;;
38023;SDS011;23834;48.080;11.682;2023-04-24T02:58:28;0.67;;;0.67;;
38023;SDS011;23834;48.080;11.682;2023-04-24T03:00:53;0.80;;;0.77;;
38023;SDS011;23834;48.080;11.682;2023-04-24T03:03:19;0.63;;;0.63;;
38023;SDS011;23834;48.080;11.682;2023-04-24T03:05:45;0.80;;;0.80;;
38023;SDS011;23834;48.080;11.682;2023-04-24T03:08:10;0.60;;;0.60;;
38023;SDS011;23834;48.080;11.682;2023-04-24T03:10:36;0.73;;;0.50;;
38023;SDS011;23834;48.080;11.682;2023-04-24T03:13:01;1.20;;;0.70;;
38023;SDS011;23834;48.080;11.682;2023-04-24T03:15:26;0.50;;;0.40;;
38023;SDS011;23834;48.080;11.682;2023-04-24T03:17:51;0.70;;;0.60;;
38023;SDS011;23834;48.080;11.682;2023-04-24T03:20:17;0.83;;;0.83;;
38023;SDS011;23834;48.080;11.682;2023-04-24T03:22:42;0.60;;;0.53;;
38023;SDS011;23834;48.080;11.682;2023-04-24T03:25:07;0.40;;;0.40;;
38023;SDS011;23834;48.080;11.682;2023-04-24T03:27:34;0.67;;;0.67;;
38023;SDS011;23834;48.080;11.682;2023-04-24T03:29:59;0.63;;;0.63;;
38023;SDS011;23834;48.080;11.682;2023-04-24T03:32:25;0.50;;;0.50;;
38023;SDS011;23834;48.080;11.682;2023-04-24T03:34:51;0.50;;;0.47;;
38023;SDS011;23834;48.080;11.682;2023-04-24T03:37:16;0.90;;;0.57;;
38023;SDS011;23834;48.080;11.682;2023-04-24T03:39:42;0.70;;;0.70;;
38023;SDS011;23834;48.080;11.682;2023-04-24T03:42:07;0.60;;;0.60;;
38023;SDS011;23834;48.080;11.682;2023-04-24T03:44:33;0.70;;;0.50;;
38023;SDS011;23834;48.080;11.682;2023-04-24T03:46:58;0.50;;;0.50;;
38023;SDS011;23834;48.080;11.682;2023-04-24T03:49:23;0.70;;;0.70;;
38023;SDS011;23834;48.080;11.682;2023-04-24T03:51:49;0.60;;;0.60;;
38023;SDS011;23834;48.080;11.682;2023-04-24T03:54:14;0.90;;;0.90;;
38023;SDS011;23834;48.080;11.682;2023-04-24T03:56:39;0.80;;;0.47;;
38023;SDS011;23834;48.080;11.682;2023-04-24T03:59:04;0.40;;;0.40;;
38023;SDS011;23834;48.080;11.682;2023-04-24T04:01:30;1.70;;;0.60;;
38023;SDS011;23834;48.080;11.682;2023-04-24T04:03:55;1.10;;;0.60;;
38023;SDS011;23834;48.080;11.682;2023-04-24T04:06:20;0.90;;;0.60;;
38023;SDS011;23834;48.080;11.682;2023-04-24T04:08:46;0.73;;;0.70;;
38023;SDS011;23834;48.080;11.682;2023-04-24T04:11:11;0.60;;;0.40;;
38023;SDS011;23834;48.080;11.682;2023-04-24T04:13:36;0.50;;;0.40;;
38023;SDS011;23834;48.080;11.682;2023-04-24T04:16:02;0.63;;;0.63;;
38023;SDS011;23834;48.080;11.682;2023-04-24T04:18:27;0.60;;;0.50;;
38023;SDS011;23834;48.080;11.682;2023-04-24T04:20:52;0.90;;;0.50;;
38023;SDS011;23834;48.080;11.682;2023-04-24T04:23:17;0.50;;;0.40;;
38023;SDS011;23834;48.080;11.682;2023-04-24T04:25:42;0.60;;;0.50;;
38023;SDS011;23834;48.080;11.682;2023-04-24T04:28:08;0.60;;;0.60;;
38023;SDS011;23834;48.080;11.682;2023-04-24T04:30:33;0.67;;;0.50;;
38023;SDS011;23834;48.080;11.682;2023-04-24T04:32:58;0.60;;;0.50;;
38023;SDS011;23834;48.080;11.682;2023-04-24T04:35:24;0.60;;;0.60;;
38023;SDS011;23834;48.080;11.682;2023-04-24T04:37:49;1.80;;;0.50;;
38023;SDS011;23834;48.080;11.682;2023-04-24T04:40:16;0.60;;;0.50;;
38023;SDS011;23834;48.080;11.682;2023-04-24T04:42:41;0.80;;;0.60;;
38023;SDS011;23834;48.080;11.682;2023-04-24T04:45:07;0.90;;;0.40;;
38023;SDS011;23834;48.080;11.682;2023-04-24T04:47:36;0.50;;;0.50;;
38023;SDS011;23834;48.080;11.682;2023-04-24T04:50:01;0.50;;;0.43;;
38023;SDS011;23834;48.080;11.682;2023-04-24T04:52:28;0.60;;;0.40;;
38023;SDS011;23834;48.080;11.682;2023-04-24T04:54:53;0.90;;;0.50;;
38023;SDS011;23834;48.080;11.682;2023-04-24T04:57:18;0.90;;;0.67;;
38023;SDS011;23834;48.080;11.682;2023-04-24T04:59:43;0.60;;;0.60;;
38023;SDS011;23834;48.080;11.682;2023-04-24T05:02:08;0.67;;;0.40;;
38023;SDS011;23834;48.080;11.682;2023-04-24T05:04:34;1.87;;;0.50;;
38023;SDS011;23834;48.080;11.682;2023-04-24T05:06:59;0.93;;;0.43;;
38023;SDS011;23834;48.080;11.682;2023-04-24T05:09:24;0.50;;;0.50;;
38023;SDS011;23834;48.080;11.682;2023-04-24T05:11:52;0.80;;;0.50;;
38023;SDS011;23834;48.080;11.682;2023-04-24T05:14:17;0.50;;;0.40;;
38023;SDS011;23834;48.080;11.682;2023-04-24T05:16:43;1.47;;;0.50;;
38023;SDS011;23834;48.080;11.682;2023-04-24T05:19:09;0.80;;;0.57;;
38023;SDS011;23834;48.080;11.682;2023-04-24T05:21:35;1.03;;;0.60;;
38023;SDS011;23834;48.080;11.682;2023-04-24T05:24:00;0.80;;;0.50;;
38023;SDS011;23834;48.080;11.682;2023-04-24T05:26:26;0.70;;;0.60;;
38023;SDS011;23834;48.080;11.682;2023-04-24T05:28:51;0.90;;;0.77;;
38023;SDS011;23834;48.080;11.682;2023-04-24T05:31:16;0.67;;;0.60;;
38023;SDS011;23834;48.080;11.682;2023-04-24T05:33:42;1.03;;;0.63;;
38023;SDS011;23834;48.080;11.682;2023-04-24T05:36:07;1.50;;;0.63;;
38023;SDS011;23834;48.080;11.682;2023-04-24T05:38:33;0.80;;;0.80;;
38023;SDS011;23834;48.080;11.682;2023-04-24T05:40:58;1.37;;;0.87;;
38023;SDS011;23834;48.080;11.682;2023-04-24T05:43:23;0.60;;;0.60;;
38023;SDS011;23834;48.080;11.682;2023-04-24T05:45:48;0.60;;;0.60;;
38023;SDS011;23834;48.080;11.682;2023-04-24T05:48:13;0.60;;;0.50;;
38023;SDS011;23834;48.080;11.682;2023-04-24T05:50:39;1.00;;;0.70;;
38023;SDS011;23834;48.080;11.682;2023-04-24T05:53:04;1.27;;;0.60;;
38023;SDS011;23834;48.080;11.682;2023-04-24T05:55:32;1.07;;;0.80;;
38023;SDS011;23834;48.080;11.682;2023-04-24T05:57:57;0.70;;;0.50;;
38023;SDS011;23834;48.080;11.682;2023-04-24T06:00:23;0.90;;;0.70;;
38023;SDS011;23834;48.080;11.682;2023-04-24T06:02:48;0.60;;;0.50;;
38023;SDS011;23834;48.080;11.682;2023-04-24T06:05:14;2.00;;;0.60;;
38023;SDS011;23834;48.080;11.682;2023-04-24T06:07:39;0.60;;;0.43;;
38023;SDS011;23834;48.080;11.682;2023-04-24T06:10:05;0.50;;;0.40;;
38023;SDS011;23834;48.080;11.682;2023-04-24T06:12:30;0.53;;;0.50;;
38023;SDS011;23834;48.080;11.682;2023-04-24T06:14:56;0.67;;;0.67;;
38023;SDS011;23834;48.080;11.682;2023-04-24T06:17:21;0.50;;;0.40;;
38023;SDS011;23834;48.080;11.682;2023-04-24T06:19:46;1.20;;;0.60;;
38023;SDS011;23834;48.080;11.682;2023-04-24T06:22:12;0.63;;;0.60;;
38023;SDS011;23834;48.080;11.682;2023-04-24T06:24:37;1.00;;;0.80;;
38023;SDS011;23834;48.080;11.682;2023-04-24T06:27:02;0.70;;;0.60;;
38023;SDS011;23834;48.080;11.682;2023-04-24T06:29:27;0.73;;;0.70;;
38023;SDS011;23834;48.080;11.682;2023-04-24T06:31:53;1.10;;;0.67;;
38023;SDS011;23834;48.080;11.682;2023-04-24T06:34:18;1.47;;;0.73;;
38023;SDS011;23834;48.080;11.682;2023-04-24T06:36:43;1.67;;;1.03;;
38023;SDS011;23834;48.080;11.682;2023-04-24T06:39:08;1.10;;;0.70;;
38023;SDS011;23834;48.080;11.682;2023-04-24T06:41:34;1.40;;;1.00;;
38023;SDS011;23834;48.080;11.682;2023-04-24T06:43:59;0.70;;;0.70;;
38023;SDS011;23834;48.080;11.682;2023-04-24T06:46:24;0.70;;;0.70;;
38023;SDS011;23834;48.080;11.682;2023-04-24T06:48:51;0.87;;;0.87;;
38023;SDS011;23834;48.080;11.682;2023-04-24T06:51:16;1.17;;;0.87;;
38023;SDS011;23834;48.080;11.682;2023-04-24T06:53:43;0.90;;;0.60;;
38023;SDS011;23834;48.080;11.682;2023-04-24T06:56:08;1.43;;;0.70;;
38023;SDS011;23834;48.080;11.682;2023-04-24T06:58:33;1.03;;;0.67;;
38023;SDS011;23834;48.080;11.682;2023-04-24T07:00:58;0.80;;;0.77;;
38023;SDS011;23834;48.080;11.682;2023-04-24T07:03:23;0.60;;;0.60;;
38023;SDS011;23834;48.080;11.682;2023-04-24T07:05:49;1.80;;;0.90;;
38023;SDS011;23834;48.080;11.682;2023-04-24T07:08:14;1.17;;;0.77;;
38023;SDS011;23834;48.080;11.682;2023-04-24T07:10:41;1.60;;;0.70;;
38023;SDS011;23834;48.080;11.682;2023-04-24T07:13:06;0.83;;;0.70;;
38023;SDS011;23834;48.080;11.682;2023-04-24T07:15:32;1.30;;;0.80;;
38023;SDS011;23834;48.080;11.682;2023-04-24T07:17:57;1.23;;;0.90;;
38023;SDS011;23834;48.080;11.682;2023-04-24T07:20:22;1.23;;;0.63;;
38023;SDS011;23834;48.080;11.682;2023-04-24T07:22:47;0.60;;;0.60;;
38023;SDS011;23834;48.080;11.682;2023-04-24T07:25:14;1.07;;;0.90;;
38023;SDS011;23834;48.080;11.682;2023-04-24T07:27:39;0.90;;;0.67;;
38023;SDS011;23834;48.080;11.682;2023-04-24T07:30:04;0.60;;;0.60;;
38023;SDS011;23834;48.080;11.682;2023-04-24T07:32:30;0.70;;;0.50;;
38023;SDS011;23834;48.080;11.682;2023-04-24T07:34:55;0.70;;;0.70;;
38023;SDS011;23834;48.080;11.682;2023-04-24T07:37:20;0.70;;;0.50;;
38023;SDS011;23834;48.080;11.682;2023-04-24T07:39:45;1.00;;;0.80;;
38023;SDS011;23834;48.080;11.682;2023-04-24T07:42:10;0.90;;;0.70;;
38023;SDS011;23834;48.080;11.682;2023-04-24T07:44:36;0.70;;;0.60;;
38023;SDS011;23834;48.080;11.682;2023-04-24T07:47:01;0.53;;;0.53;;
38023;SDS011;23834;48.080;11.682;2023-04-24T07:49:26;1.00;;;0.50;;
38023;SDS011;23834;48.080;11.682;2023-04-24T07:51:52;0.93;;;0.80;;
38023;SDS011;23834;48.080;11.682;2023-04-24T07:54:17;0.67;;;0.67;;
38023;SDS011;23834;48.080;11.682;2023-04-24T07:56:43;0.60;;;0.50;;
38023;SDS011;23834;48.080;11.682;2023-04-24T07:59:08;0.63;;;0.63;;
38023;SDS011;23834;48.080;11.682;2023-04-24T08:01:35;1.37;;;0.57;;
38023;SDS011;23834;48.080;11.682;2023-04-24T08:04:00;0.77;;;0.50;;
38023;SDS011;23834;48.080;11.682;2023-04-24T08:06:25;1.27;;;0.60;;
38023;SDS011;23834;48.080;11.682;2023-04-24T08:08:55;1.83;;;0.77;;
38023;SDS011;23834;48.080;11.682;2023-04-24T08:11:20;1.37;;;0.63;;
38023;SDS011;23834;48.080;11.682;2023-04-24T08:13:45;0.70;;;0.60;;
38023;SDS011;23834;48.080;11.682;2023-04-24T08:16:10;1.60;;;0.80;;
38023;SDS011;23834;48.080;11.682;2023-04-24T08:18:35;0.83;;;0.83;;
38023;SDS011;23834;48.080;11.682;2023-04-24T08:21:01;1.80;;;0.87;;
38023;SDS011;23834;48.080;11.682;2023-04-24T08:23:26;0.80;;;0.67;;
38023;SDS011;23834;48.080;11.682;2023-04-24T08:25:52;0.77;;;0.77;;
38023;SDS011;23834;48.080;11.682;2023-04-24T08:28:17;0.97;;;0.80;;
38023;SDS011;23834;48.080;11.682;2023-04-24T08:30:45;0.80;;;0.80;;
38023;SDS011;23834;48.080;11.682;2023-04-24T08:33:10;0.90;;;0.63;;
38023;SDS011;23834;48.080;11.682;2023-04-24T08:35:35;0.80;;;0.80;;
38023;SDS011;23834;48.080;11.682;2023-04-24T08:38:00;1.30;;;0.70;;
38023;SDS011;23834;48.080;11.682;2023-04-24T08:40:27;0.77;;;0.73;;
38023;SDS011;23834;48.080;11.682;2023-04-24T08:42:54;0.87;;;0.50;;
38023;SDS011;23834;48.080;11.682;2023-04-24T08:45:21;3.70;;;0.60;;
38023;SDS011;23834;48.080;11.682;2023-04-24T08:47:46;1.00;;;0.73;;
38023;SDS011;23834;48.080;11.682;2023-04-24T08:50:12;0.63;;;0.47;;
38023;SDS011;23834;48.080;11.682;2023-04-24T08:52:38;1.10;;;0.73;;
38023;SDS011;23834;48.080;11.682;2023-04-24T08:55:05;1.00;;;0.70;;
38023;SDS011;23834;48.080;11.682;2023-04-24T08:57:30;1.13;;;0.60;;
38023;SDS011;23834;48.080;11.682;2023-04-24T08:59:56;0.80;;;0.60;;
38023;SDS011;23834;48.080;11.682;2023-04-24T09:02:22;0.60;;;0.50;;
38023;SDS011;23834;48.080;11.682;2023-04-24T09:04:48;2.53;;;0.60;;
38023;SDS011;23834;48.080;11.682;2023-04-24T09:07:14;1.30;;;0.60;;
38023;SDS011;23834;48.080;11.682;2023-04-24T09:09:41;1.37;;;0.70;;
38023;SDS011;23834;48.080;11.682;2023-04-24T09:12:07;0.53;;;0.50;;
38023;SDS011;23834;48.080;11.682;2023-04-24T09:14:34;0.63;;;0.47;;
38023;SDS011;23834;48.080;11.682;2023-04-24T09:17:01;0.70;;;0.60;;
38023;SDS011;23834;48.080;11.682;2023-04-24T09:19:26;1.03;;;0.70;;
38023;SDS011;23834;48.080;11.682;2023-04-24T09:21:51;0.70;;;0.60;;
38023;SDS011;23834;48.080;11.682;2023-04-24T09:24:18;0.50;;;0.50;;
38023;SDS011;23834;48.080;11.682;2023-04-24T09:26:45;1.43;;;0.40;;
38023;SDS011;23834;48.080;11.682;2023-04-24T09:29:16;1.07;;;0.60;;
38023;SDS011;23834;48.080;11.682;2023-04-24T09:31:42;0.97;;;0.70;;
38023;SDS011;23834;48.080;11.682;2023-04-24T09:34:07;0.80;;;0.60;;
38023;SDS011;23834;48.080;11.682;2023-04-24T09:36:36;1.07;;;0.73;;
38023;SDS011;23834;48.080;11.682;2023-04-24T09:39:10;2.53;;;0.53;;
38023;SDS011;23834;48.080;11.682;2023-04-24T09:41:43;1.50;;;0.83;;
38023;SDS011;23834;48.080;11.682;2023-04-24T09:44:13;0.80;;;0.80;;
38023;SDS011;23834;48.080;11.682;2023-04-24T09:46:38;0.77;;;0.77;;
38023;SDS011;23834;48.080;11.682;2023-04-24T09:49:10;0.90;;;0.87;;
38023;SDS011;23834;48.080;11.682;2023-04-24T09:51:36;1.13;;;0.90;;
38023;SDS011;23834;48.080;11.682;2023-04-24T09:54:02;0.80;;;0.80;;
38023;SDS011;23834;48.080;11.682;2023-04-24T09:56:29;1.60;;;0.90;;
38023;SDS011;23834;48.080;11.682;2023-04-24T09:59:03;1.03;;;0.80;;
38023;SDS011;23834;48.080;11.682;2023-04-24T10:01:32;1.50;;;0.90;;
38023;SDS011;23834;48.080;11.682;2023-04-24T10:03:57;1.50;;;0.90;;
38023;SDS011;23834;48.080;11.682;2023-04-24T10:06:22;1.00;;;1.00;;
38023;SDS011;23834;48.080;11.682;2023-04-24T10:08:47;1.43;;;0.80;;
38023;SDS011;23834;48.080;11.682;2023-04-24T10:11:13;1.13;;;0.80;;
38023;SDS011;23834;48.080;11.682;2023-04-24T10:13:38;0.97;;;0.90;;
38023;SDS011;23834;48.080;11.682;2023-04-24T10:16:05;1.10;;;0.80;;
38023;SDS011;23834;48.080;11.682;2023-04-24T10:18:31;0.90;;;0.70;;
38023;SDS011;23834;48.080;11.682;2023-04-24T10:20:57;0.80;;;0.80;;
38023;SDS011;23834;48.080;11.682;2023-04-24T10:23:25;0.80;;;0.70;;
38023;SDS011;23834;48.080;11.682;2023-04-24T10:25:50;0.60;;;0.60;;
38023;SDS011;23834;48.080;11.682;2023-04-24T10:28:15;1.13;;;0.73;;
38023;SDS011;23834;48.080;11.682;2023-04-24T10:30:42;0.83;;;0.60;;
38023;SDS011;23834;48.080;11.682;2023-04-24T10:33:08;0.90;;;0.50;;
38023;SDS011;23834;48.080;11.682;2023-04-24T10:35:41;1.23;;;0.80;;
38023;SDS011;23834;48.080;11.682;2023-04-24T10:38:08;1.00;;;0.80;;
38023;SDS011;23834;48.080;11.682;2023-04-24T10:40:34;0.77;;;0.77;;
38023;SDS011;23834;48.080;11.682;2023-04-24T10:43:03;1.07;;;0.60;;
38023;SDS011;23834;48.080;11.682;2023-04-24T10:45:31;1.30;;;0.70;;
38023;SDS011;23834;48.080;11.682;2023-04-24T10:47:57;0.80;;;0.80;;
38023;SDS011;23834;48.080;11.682;2023-04-24T10:50:23;1.40;;;0.60;;
38023;SDS011;23834;48.080;11.682;2023-04-24T10:52:49;0.80;;;0.60;;
38023;SDS011;23834;48.080;11.682;2023-04-24T10:55:16;1.13;;;0.73;;
38023;SDS011;23834;48.080;11.682;2023-04-24T10:58:03;1.27;;;1.00;;
38023;SDS011;23834;48.080;11.682;2023-04-24T11:00:27;0.70;;;0.70;;
38023;SDS011;23834;48.080;11.682;2023-04-24T11:02:53;0.93;;;0.90;;
38023;SDS011;23834;48.080;11.682;2023-04-24T11:05:19;0.70;;;0.70;;
38023;SDS011;23834;48.080;11.682;2023-04-24T11:10:28;0.70;;;0.70;;
38023;SDS011;23834;48.080;11.682;2023-04-24T11:12:53;0.70;;;0.70;;
38023;SDS011;23834;48.080;11.682;2023-04-24T11:15:18;0.87;;;0.80;;
38023;SDS011;23834;48.080;11.682;2023-04-24T11:17:44;0.50;;;0.50;;
38023;SDS011;23834;48.080;11.682;2023-04-24T11:20:11;0.80;;;0.80;;
38023;SDS011;23834;48.080;11.682;2023-04-24T11:22:37;0.60;;;0.53;;
38023;SDS011;23834;48.080;11.682;2023-04-24T11:25:03;0.90;;;0.50;;
38023;SDS011;23834;48.080;11.682;2023-04-24T11:27:30;0.70;;;0.70;;
38023;SDS011;23834;48.080;11.682;2023-04-24T11:34:49;1.03;;;0.57;;
38023;SDS011;23834;48.080;11.682;2023-04-24T11:37:15;1.53;;;0.90;;
38023;SDS011;23834;48.080;11.682;2023-04-24T11:39:41;0.77;;;0.60;;
38023;SDS011;23834;48.080;11.682;2023-04-24T11:42:06;1.43;;;0.87;;
38023;SDS011;23834;48.080;11.682;2023-04-24T11:44:33;0.90;;;0.60;;
38023;SDS011;23834;48.080;11.682;2023-04-24T11:46:58;0.80;;;0.60;;
38023;SDS011;23834;48.080;11.682;2023-04-24T11:49:23;0.90;;;0.57;;
38023;SDS011;23834;48.080;11.682;2023-04-24T11:51:49;0.83;;;0.70;;
38023;SDS011;23834;48.080;11.682;2023-04-24T11:54:14;0.70;;;0.60;;
38023;SDS011;23834;48.080;11.682;2023-04-24T11:56:44;1.37;;;0.80;;
38023;SDS011;23834;48.080;11.682;2023-04-24T11:59:09;0.73;;;0.73;;
38023;SDS011;23834;48.080;11.682;2023-04-24T12:01:47;1.00;;;0.70;;
38023;SDS011;23834;48.080;11.682;2023-04-24T12:04:12;0.70;;;0.70;;
38023;SDS011;23834;48.080;11.682;2023-04-24T12:06:38;0.80;;;0.73;;
38023;SDS011;23834;48.080;11.682;2023-04-24T12:09:03;0.60;;;0.60;;
38023;SDS011;23834;48.080;11.682;2023-04-24T12:11:29;0.70;;;0.70;;
38023;SDS011;23834;48.080;11.682;2023-04-24T12:13:54;0.90;;;0.90;;
38023;SDS011;23834;48.080;11.682;2023-04-24T12:16:19;0.70;;;0.67;;
38023;SDS011;23834;48.080;11.682;2023-04-24T12:18:45;0.77;;;0.60;;
38023;SDS011;23834;48.080;11.682;2023-04-24T12:21:14;1.33;;;0.80;;
38023;SDS011;23834;48.080;11.682;2023-04-24T12:23:42;1.00;;;0.50;;
38023;SDS011;23834;48.080;11.682;2023-04-24T12:26:07;2.37;;;0.80;;
38023;SDS011;23834;48.080;11.682;2023-04-24T12:28:35;1.60;;;0.70;;
38023;SDS011;23834;48.080;11.682;2023-04-24T12:31:01;0.70;;;0.60;;
38023;SDS011;23834;48.080;11.682;2023-04-24T12:33:27;0.60;;;0.60;;
38023;SDS011;23834;48.080;11.682;2023-04-24T12:35:52;0.70;;;0.50;;
38023;SDS011;23834;48.080;11.682;2023-04-24T12:38:24;0.60;;;0.60;;
38023;SDS011;23834;48.080;11.682;2023-04-24T12:41:01;0.57;;;0.57;;
38023;SDS011;23834;48.080;11.682;2023-04-24T12:43:26;0.87;;;0.53;;
38023;SDS011;23834;48.080;11.682;2023-04-24T12:45:51;1.43;;;0.47;;
38023;SDS011;23834;48.080;11.682;2023-04-24T12:48:16;0.93;;;0.60;;
38023;SDS011;23834;48.080;11.682;2023-04-24T12:50:42;1.70;;;0.77;;
38023;SDS011;23834;48.080;11.682;2023-04-24T12:53:08;1.27;;;0.90;;
38023;SDS011;23834;48.080;11.682;2023-04-24T12:55:33;0.77;;;0.60;;
38023;SDS011;23834;48.080;11.682;2023-04-24T12:57:59;0.60;;;0.60;;
38023;SDS011;23834;48.080;11.682;2023-04-24T13:00:24;0.70;;;0.70;;
38023;SDS011;23834;48.080;11.682;2023-04-24T13:02:49;0.73;;;0.50;;
38023;SDS011;23834;48.080;11.682;2023-04-24T13:05:15;0.80;;;0.67;;
38023;SDS011;23834;48.080;11.682;2023-04-24T13:07:40;0.90;;;0.80;;
38023;SDS011;23834;48.080;11.682;2023-04-24T13:10:05;1.23;;;0.80;;
38023;SDS011;23834;48.080;11.682;2023-04-24T13:12:31;0.93;;;0.70;;
38023;SDS011;23834;48.080;11.682;2023-04-24T13:14:57;0.70;;;0.70;;
38023;SDS011;23834;48.080;11.682;2023-04-24T13:17:22;0.80;;;0.80;;
38023;SDS011;23834;48.080;11.682;2023-04-24T13:19:49;0.60;;;0.60;;
38023;SDS011;23834;48.080;11.682;2023-04-24T13:22:15;0.97;;;0.63;;
38023;SDS011;23834;48.080;11.682;2023-04-24T13:24:40;1.03;;;0.80;;
38023;SDS011;23834;48.080;11.682;2023-04-24T13:27:06;0.50;;;0.50;;
38023;SDS011;23834;48.080;11.682;2023-04-24T13:29:31;0.93;;;0.70;;
38023;SDS011;23834;48.080;11.682;2023-04-24T13:31:56;0.67;;;0.60;;
38023;SDS011;23834;48.080;11.682;2023-04-24T13:34:24;1.03;;;0.77;;
38023;SDS011;23834;48.080;11.682;2023-04-24T13:36:53;1.23;;;0.60;;
38023;SDS011;23834;48.080;11.682;2023-04-24T13:39:19;0.73;;;0.73;;
38023;SDS011;23834;48.080;11.682;2023-04-24T13:41:44;0.50;;;0.50;;
38023;SDS011;23834;48.080;11.682;2023-04-24T13:44:12;0.80;;;0.80;;
38023;SDS011;23834;48.080;11.682;2023-04-24T13:46:37;1.23;;;0.80;;
38023;SDS011;23834;48.080;11.682;2023-04-24T13:49:02;0.70;;;0.70;;
38023;SDS011;23834;48.080;11.682;2023-04-24T13:51:28;0.67;;;0.67;;
38023;SDS011;23834;48.080;11.682;2023-04-24T13:53:54;1.27;;;0.73;;
38023;SDS011;23834;48.080;11.682;2023-04-24T13:56:20;1.03;;;0.70;;
38023;SDS011;23834;48.080;11.682;2023-04-24T13:58:45;0.77;;;0.77;;
38023;SDS011;23834;48.080;11.682;2023-04-24T14:01:10;0.70;;;0.70;;
38023;SDS011;23834;48.080;11.682;2023-04-24T14:03:36;0.70;;;0.70;;
38023;SDS011;23834;48.080;11.682;2023-04-24T14:06:02;0.97;;;0.70;;
38023;SDS011;23834;48.080;11.682;2023-04-24T14:08:27;0.90;;;0.90;;
38023;SDS011;23834;48.080;11.682;2023-04-24T14:10:52;0.63;;;0.63;;
38023;SDS011;23834;48.080;11.682;2023-04-24T14:13:17;0.60;;;0.60;;
38023;SDS011;23834;48.080;11.682;2023-04-24T14:15:43;0.70;;;0.70;;
38023;SDS011;23834;48.080;11.682;2023-04-24T14:18:08;0.60;;;0.60;;
38023;SDS011;23834;48.080;11.682;2023-04-24T14:20:33;2.03;;;0.80;;
38023;SDS011;23834;48.080;11.682;2023-04-24T14:22:58;0.90;;;0.70;;
38023;SDS011;23834;48.080;11.682;2023-04-24T14:25:26;0.73;;;0.73;;
38023;SDS011;23834;48.080;11.682;2023-04-24T14:27:52;0.73;;;0.60;;
38023;SDS011;23834;48.080;11.682;2023-04-24T14:30:17;1.57;;;0.70;;
38023;SDS011;23834;48.080;11.682;2023-04-24T14:32:43;0.67;;;0.67;;